Meppen Air Base

METAR ETND TAF ETND
6 °C
°C
-
°C
32m
Edad
06:52:28
LT
05:52
UTC
0 ft

1.000

2.000

3.000

4.000

5.000

SCT 700
BKN 1.600
MVFR
<?= Yii::t('app', 'Wind direction') ?> <?= Yii::t('app', 'of'); ?>
270°
08:11
Amanecer
93%
Humedad
Cizalladura del viento
Cerrado/Nieve
Alcance visual RWY
Estado de la RWY
Visibilidad vert.
Visibilidad mínima
CAVOK
Tendencia
Corrección
Informe especial
1009 hPa
QNH
METAR ETND 300520Z 27014KT 9999 -RADZ SCT007 BKN016 06/05 Q1009 WHT WHT BECMG BLU
Lluvia llovizna ligera
8 kt
8 kt
07:00
MVFR
15 kt
08:00
VFR
15 kt
09:00
IFR
20 kt
10:00
IFR
20 kt
11:00
IFR
20 kt
12:00
IFR
20 kt
13:00
IFR
20 kt
10 km+
Visibilidad
1.600 ft
Cielo nuboso
14 kt
Viento
metar-taf.com/ETWM

Metar-Taf.com

Decodificador visual

Nosotros y terceros seguimos tu comportamiento en Internet en nuestro sitio web con cookies. Si continúas, asumimos que estás de acuerdo con nuestra Política de cookies.